Time;durP1;ratioP1;P1;durP2;ratioP2;P2;SDS_P1;SDS_P2;PMS_P1;PMS_P2;Temp;Humidity;BMP_temperature;BMP_pressure;BME280_temperature;BME280_humidity;BME280_pressure;Samples;Min_cycle;Max_cycle;Signal;HPM_P1;HPM_P2
2021/08/11 00:00:36;;;;;;;;;96.00;81.75;;;;;25.62;76.52;100521.91;4942502;28;8865;-73
2021/08/11 00:03:32;;;;;;;;;90.67;73.67;;;;;25.61;76.52;100527.97;4954803;28;9673;-73
2021/08/11 00:06:01;;;;;;;;;82.00;66.75;;;;;25.87;75.96;100529.06;4955784;28;9102;-73
2021/08/11 00:08:56;;;;;;;;;73.25;59.75;;;;;25.85;75.84;100535.16;4954728;28;8857;-73
2021/08/11 00:11:52;;;;;;;;;74.75;62.25;;;;;25.88;75.88;100539.16;4954589;28;8861;-72
2021/08/11 00:14:47;;;;;;;;;75.50;58.00;;;;;26.05;75.66;100529.41;4955124;28;8976;-73
2021/08/11 00:17:43;;;;;;;;;67.50;56.00;;;;;26.01;75.77;100531.56;4954423;28;8869;-73
2021/08/11 00:20:38;;;;;;;;;0.00;0.00;;;;;26.04;75.08;100525.00;4955261;28;8895;-73
2021/08/11 00:23:34;;;;;;;;;71.25;54.75;;;;;26.17;75.23;100528.75;4955351;28;9603;-71
2021/08/11 00:26:30;;;;;;;;;67.00;52.50;;;;;26.26;75.06;100537.41;4942347;28;8944;-72
2021/08/11 00:29:26;;;;;;;;;70.25;58.25;;;;;26.08;75.47;100527.75;4955195;28;8856;-72
2021/08/11 00:32:21;;;;;;;;;70.75;54.25;;;;;26.37;74.92;100531.47;4954934;28;8865;-72
2021/08/11 00:34:49;;;;;;;;;53.50;42.25;;;;;26.46;74.22;100528.84;4938195;28;8864;-72
2021/08/11 00:37:30;;;;;;;;;69.25;53.00;;;;;26.06;75.50;100537.47;4955209;28;8865;-72
2021/08/11 00:40:28;;;;;;;;;74.25;62.00;;;;;25.81;76.95;100540.09;4955020;28;8865;-72
2021/08/11 00:43:24;;;;;;;;;70.75;55.75;;;;;25.97;76.63;100537.28;4954295;28;8903;-72
2021/08/11 00:45:53;;;;;;;;;72.50;54.00;;;;;26.20;75.42;100529.88;4955087;28;8913;-73
2021/08/11 00:48:25;;;;;;;;;74.00;63.25;;;;;25.82;76.83;100524.69;4935909;29;8894;-73
2021/08/11 00:51:21;;;;;;;;;69.75;52.75;;;;;25.89;77.04;100521.69;4935570;29;8860;-73
2021/08/11 00:54:18;;;;;;;;;73.00;58.50;;;;;26.07;76.58;100515.63;4935470;29;8860;-73
2021/08/11 00:57:16;;;;;;;;;70.25;56.50;;;;;26.32;75.39;100509.34;4935771;29;8882;-73
2021/08/11 01:00:13;;;;;;;;;71.25;54.75;;;;;26.51;74.50;100516.97;4936680;29;8949;-72
2021/08/11 01:03:18;;;;;;;;;68.25;50.50;;;;;26.61;74.16;100512.28;4935420;29;8875;-72
2021/08/11 01:06:15;;;;;;;;;37.00;33.20;;;;;26.46;74.44;100511.06;4953921;28;9684;-73
2021/08/11 01:09:13;;;;;;;;;46.75;39.00;;;;;25.77;77.31;100509.03;4953924;28;8959;-72
2021/08/11 01:12:09;;;;;;;;;46.50;39.75;;;;;25.89;77.58;100510.38;4954698;28;8860;-74
2021/08/11 01:15:06;;;;;;;;;48.25;40.75;;;;;25.95;77.39;100502.16;4953605;28;8841;-72
2021/08/11 01:18:03;;;;;;;;;51.75;43.00;;;;;25.80;77.90;100498.84;4955082;28;8869;-73
2021/08/11 01:21:12;;;;;;;;;53.75;44.75;;;;;25.75;77.93;100508.66;4953959;29;8861;-73
2021/08/11 01:24:07;;;;;;;;;39.00;34.50;;;;;25.94;77.28;100504.19;4941994;29;8845;-73
2021/08/11 01:27:10;;;;;;;;;50.50;42.25;;;;;25.93;77.27;100504.63;4954066;29;8889;-73
2021/08/11 01:30:20;;;;;;;;;51.50;42.25;;;;;26.12;76.75;100503.75;4941515;29;9621;-73
2021/08/11 01:33:15;;;;;;;;;51.25;42.50;;;;;26.21;76.02;100509.59;4956270;29;8887;-74
2021/08/11 01:36:24;;;;;;;;;47.50;40.25;;;;;26.21;75.77;100503.91;4953736;28;8849;-73
2021/08/11 01:39:05;;;;;;;;;40.40;35.60;;;;;26.24;75.61;100507.94;4956575;29;8948;-74
2021/08/11 01:42:15;;;;;;;;;34.20;31.40;;;;;26.23;75.63;100512.81;4940454;29;8906;-74
2021/08/11 01:45:06;;;;;;;;;45.50;38.25;;;;;26.27;75.76;100512.69;4954725;29;8920;-75
2021/08/11 01:48:10;;;;;;;;;39.40;35.20;;;;;26.23;75.46;100514.84;4956844;28;8908;-74
2021/08/11 01:51:07;;;;;;;;;45.25;37.25;;;;;26.42;75.47;100519.63;4957544;28;8880;-74
2021/08/11 01:54:05;;;;;;;;;44.25;37.75;;;;;26.41;75.00;100517.25;4957723;28;8946;-74
2021/08/11 01:57:03;;;;;;;;;42.80;37.00;;;;;26.37;75.32;100514.47;4957410;28;9604;-72
2021/08/11 02:00:00;;;;;;;;;37.40;34.00;;;;;26.24;75.91;100522.91;4957848;28;8890;-73
2021/08/11 02:02:37;;;;;;;;;40.60;34.80;;;;;26.17;75.80;100522.28;4958093;28;8861;-74
2021/08/11 02:05:33;;;;;;;;;43.00;37.20;;;;;26.11;76.27;100526.88;4957015;28;8884;-74
2021/08/11 02:08:31;;;;;;;;;40.80;36.00;;;;;25.94;76.40;100529.69;4957118;28;8880;-72
2021/08/11 02:11:27;;;;;;;;;42.75;37.50;;;;;25.98;77.09;100533.22;4958835;28;8879;-74
2021/08/11 02:14:23;;;;;;;;;39.60;35.20;;;;;25.98;76.69;100533.22;4956777;28;8857;-73
2021/08/11 02:17:20;;;;;;;;;44.50;38.25;;;;;25.85;77.10;100528.72;4957996;28;8940;-73
2021/08/11 02:20:15;;;;;;;;;43.75;37.75;;;;;25.62;77.80;100527.56;4957325;28;8841;-72
2021/08/11 02:22:42;;;;;;;;;46.25;39.50;;;;;25.73;77.95;100525.31;4957803;28;8861;-73
2021/08/11 02:25:24;;;;;;;;;43.25;37.25;;;;;25.98;77.53;100526.75;4958875;28;8911;-72
2021/08/11 02:28:07;;;;;;;;;48.50;41.25;;;;;25.99;76.42;100522.69;4957774;28;8853;-73
2021/08/11 02:31:03;;;;;;;;;46.00;39.00;;;;;25.51;78.37;100527.78;4959608;28;8884;-72
2021/08/11 02:34:08;;;;;;;;;43.75;37.00;;;;;25.65;78.93;100523.84;4958015;28;8899;-72
2021/08/11 02:37:06;;;;;;;;;43.75;38.00;;;;;25.96;77.43;100512.25;4915918;28;8885;-72
2021/08/11 02:40:18;;;;;;;;;43.00;37.60;;;;;25.90;77.76;100505.50;4937891;29;9632;-74
2021/08/11 02:43:28;;;;;;;;;41.50;36.50;;;;;25.82;77.17;100513.38;4937222;29;8860;-74
2021/08/11 02:46:25;;;;;;;;;44.75;38.25;;;;;25.85;77.52;100506.84;4937521;29;8863;-74
2021/08/11 02:49:26;;;;;;;;;42.80;37.60;;;;;25.74;78.23;100507.06;4938106;29;8890;-74
2021/08/11 02:51:57;;;;;;;;;44.50;38.50;;;;;26.00;76.85;100496.75;4937947;29;8888;-73
2021/08/11 02:54:56;;;;;;;;;44.80;36.60;;;;;26.04;76.76;100503.13;4937849;29;8870;-74
2021/08/11 02:57:52;;;;;;;;;44.80;38.40;;;;;26.14;76.11;100509.75;4939060;29;8938;-74
2021/08/11 03:00:50;;;;;;;;;47.50;40.75;;;;;26.06;76.06;100505.50;4937305;29;8882;-75
2021/08/11 03:03:23;;;;;;;;;42.80;36.80;;;;;25.96;76.89;100501.69;4939193;29;8898;-74
2021/08/11 03:06:18;;;;;;;;;38.20;34.40;;;;;25.86;77.84;100502.75;4945062;28;8872;-74
2021/08/11 03:09:14;;;;;;;;;45.00;38.60;;;;;25.87;77.35;100495.84;4949220;28;8860;-75
2021/08/11 03:12:11;;;;;;;;;46.75;39.00;;;;;25.56;79.11;100501.00;4952905;28;8865;-73
2021/08/11 03:15:07;;;;;;;;;44.50;37.50;;;;;26.04;77.04;100508.00;4937079;28;8884;-73
2021/08/11 03:18:03;;;;;;;;;48.00;41.00;;;;;26.24;76.41;100502.25;4950480;28;8849;-74
2021/08/11 03:20:32;;;;;;;;;45.75;39.00;;;;;26.41;75.36;100503.88;4950335;28;9968;-72
2021/08/11 03:22:59;;;;;;;;;53.25;41.50;;;;;26.40;74.72;100505.13;4950826;28;8861;-75
2021/08/11 03:25:28;;;;;;;;;50.80;42.00;;;;;26.36;74.81;100517.75;4950290;28;8951;-74
2021/08/11 03:27:55;;;;;;;;;47.20;39.00;;;;;26.34;75.34;100518.97;4949338;28;8967;-72
2021/08/11 03:30:39;;;;;;;;;42.80;37.20;;;;;26.53;74.98;100523.00;4949094;28;8917;-74
2021/08/11 03:33:06;;;;;;;;;48.20;39.20;;;;;26.58;74.29;100525.28;4955810;28;8903;-74
2021/08/11 03:36:02;;;;;;;;;45.40;39.00;;;;;26.46;73.86;100530.91;4955228;28;9588;-74
2021/08/11 03:38:57;;;;;;;;;32.40;30.60;;;;;26.10;69.74;100520.41;4956492;28;8872;-72
2021/08/11 03:41:44;;;;;;;;;29.20;28.80;;;;;26.09;70.31;100524.47;4956695;28;9664;-73
2021/08/11 03:44:39;;;;;;;;;30.60;30.00;;;;;25.87;69.85;100526.22;4955582;28;9643;-73
2021/08/11 03:47:39;;;;;;;;;34.00;32.00;;;;;25.78;72.36;100524.00;4955679;28;8888;-73
2021/08/11 03:50:35;;;;;;;;;34.60;31.40;;;;;26.09;73.41;100515.19;4955070;28;8856;-72
2021/08/11 03:53:30;;;;;;;;;35.00;32.00;;;;;26.01;72.17;100515.34;4955797;28;8853;-73
2021/08/11 03:56:26;;;;;;;;;38.40;33.60;;;;;26.09;73.23;100506.69;4954687;28;8996;-73
2021/08/11 03:59:21;;;;;;;;;33.20;31.40;;;;;26.30;73.15;100508.97;4955668;28;9626;-72
2021/08/11 04:02:17;;;;;;;;;33.80;31.80;;;;;26.57;72.40;100503.06;4955877;28;8883;-72
2021/08/11 04:05:13;;;;;;;;;35.00;31.20;;;;;26.71;71.10;100511.19;4955287;28;8849;-72
2021/08/11 04:08:08;;;;;;;;;29.20;28.80;;;;;26.72;71.07;100507.09;4954724;28;8959;-72
2021/08/11 04:10:36;;;;;;;;;34.40;30.80;;;;;26.78;70.30;100511.00;4955895;28;8884;-73
2021/08/11 04:13:24;;;;;;;;;35.00;31.40;;;;;26.75;70.71;100500.53;4936348;29;9637;-73
2021/08/11 04:16:20;;;;;;;;;33.40;30.60;;;;;26.74;70.93;100509.47;4936782;29;8935;-72
2021/08/11 04:19:07;;;;;;;;;34.40;31.00;;;;;26.77;70.55;100500.88;4937210;29;8860;-72
2021/08/11 04:22:09;;;;;;;;;35.40;30.40;;;;;26.64;69.45;100507.75;4948294;28;9728;-72
2021/08/11 04:25:06;;;;;;;;;1.40;1.00;;;;;26.58;69.43;100513.16;4954629;28;8895;-73
2021/08/11 04:28:05;;;;;;;;;26.20;26.00;;;;;26.68;70.15;100508.44;4942610;28;8875;-71
2021/08/11 04:31:01;;;;;;;;;33.00;31.20;;;;;26.53;68.89;100500.31;4956365;28;8888;-73
2021/08/11 04:33:29;;;;;;;;;34.80;31.80;;;;;26.47;69.73;100506.97;4956259;28;8872;-72
2021/08/11 04:36:24;;;;;;;;;27.80;27.60;;;;;26.28;67.99;100517.91;4954387;28;8900;-72
2021/08/11 04:39:22;;;;;;;;;33.80;31.40;;;;;26.60;70.05;100510.66;4954682;28;8889;-73
2021/08/11 04:42:20;;;;;;;;;26.60;26.20;;;;;26.57;68.38;100505.88;4912743;29;8876;-72
2021/08/11 04:45:15;;;;;;;;;32.80;31.20;;;;;26.75;69.40;100516.75;4915030;29;8848;-72
2021/08/11 04:48:11;;;;;;;;;29.20;28.20;;;;;26.69;67.66;100519.34;4916843;29;8856;-72
2021/08/11 04:50:38;;;;;;;;;31.80;30.80;;;;;26.81;68.66;100529.94;4916083;29;8848;-71
2021/08/11 04:53:06;;;;;;;;;29.00;27.40;;;;;26.89;67.92;100530.53;4919488;29;8936;-72
2021/08/11 04:55:48;;;;;;;;;31.80;30.20;;;;;26.86;67.55;100528.63;4909114;29;9648;-72
2021/08/11 04:58:17;;;;;;;;;26.00;25.80;;;;;26.95;66.51;100522.28;4928540;29;8897;-72
2021/08/11 05:00:45;;;;;;;;;30.20;29.00;;;;;26.99;65.81;100529.47;4931471;29;8895;-73
2021/08/11 05:03:41;;;;;;;;;26.20;24.80;;;;;26.78;63.40;100530.06;4915970;29;8862;-74
2021/08/11 05:06:09;;;;;;;;;22.20;22.20;;;;;26.73;65.40;100525.72;4918160;29;8853;-73
2021/08/11 05:08:38;;;;;;;;;20.80;20.60;;;;;26.73;66.59;100524.91;4917386;29;8930;-73
2021/08/11 05:11:06;;;;;;;;;25.60;25.20;;;;;26.74;65.60;100520.81;4899391;29;8872;-73
2021/08/11 05:13:35;;;;;;;;;19.60;19.00;;;;;26.54;64.65;100535.94;4907893;29;8847;-73
2021/08/11 05:16:31;;;;;;;;;23.00;23.00;;;;;26.42;65.74;100533.00;4934142;29;8838;-73
2021/08/11 05:19:28;;;;;;;;;25.60;24.80;;;;;26.39;63.68;100533.91;4934989;29;8863;-73
2021/08/11 05:22:09;;;;;;;;;28.20;27.60;;;;;26.36;65.54;100534.75;4917131;29;8873;-72
2021/08/11 05:24:42;;;;;;;;;24.20;23.60;;;;;26.44;65.98;100519.97;4935124;29;8874;-72
2021/08/11 05:27:38;;;;;;;;;27.60;24.60;;;;;26.36;66.63;100532.72;4909324;29;8859;-73
2021/08/11 05:30:08;;;;;;;;;26.20;26.20;;;;;26.61;65.95;100520.78;4935765;29;8869;-72
2021/08/11 05:33:03;;;;;;;;;28.20;27.20;;;;;26.19;64.22;100522.63;4921464;29;8886;-74
2021/08/11 05:36:00;;;;;;;;;29.20;27.40;;;;;26.05;67.73;100524.56;4930463;29;8844;-73
2021/08/11 05:38:30;;;;;;;;;28.60;27.80;;;;;26.29;64.84;100522.34;4915660;29;8892;-73
2021/08/11 05:41:25;;;;;;;;;35.25;32.25;;;;;26.35;65.52;100519.78;4414748;29;15133960;-72
2021/08/11 05:43:53;;;;;;;;;27.20;26.80;;;;;26.65;66.90;100524.31;4935754;29;8915;-71
2021/08/11 05:46:48;;;;;;;;;36.40;33.00;;;;;26.71;64.43;100516.84;4934822;29;8861;-73
2021/08/11 05:49:21;;;;;;;;;30.00;26.60;;;;;26.92;65.59;100526.03;4921665;29;8935;-73
2021/08/11 05:52:05;;;;;;;;;27.20;27.20;;;;;26.99;65.74;100520.13;4955440;29;8878;-73
2021/08/11 05:55:00;;;;;;;;;39.80;30.80;;;;;26.94;65.32;100524.34;4941470;29;8859;-74
2021/08/11 05:57:36;;;;;;;;;43.60;36.60;;;;;27.11;63.20;100525.91;4927136;29;8846;-74
2021/08/11 06:00:08;;;;;;;;;36.80;32.80;;;;;27.03;65.15;100521.66;4935816;29;8865;-73
2021/08/11 06:03:05;;;;;;;;;49.00;37.60;;;;;27.02;62.95;100527.78;4935333;29;9573;-73
2021/08/11 06:05:46;;;;;;;;;42.00;36.60;;;;;27.33;64.39;100531.78;4934042;29;8874;-73
2021/08/11 06:08:14;;;;;;;;;43.60;37.40;;;;;27.63;63.41;100541.03;4935317;29;8905;-73
2021/08/11 06:11:09;;;;;;;;;57.25;46.25;;;;;27.51;61.73;100539.75;4934186;29;8853;-73
2021/08/11 06:14:05;;;;;;;;;45.80;37.00;;;;;27.52;63.46;100537.69;4926606;29;8959;-73
2021/08/11 06:17:01;;;;;;;;;63.67;46.67;;;;;27.49;63.15;100533.72;4933975;29;8924;-73
2021/08/11 06:19:56;;;;;;;;;67.25;49.50;;;;;27.50;62.12;100535.31;4934133;29;8841;-74
2021/08/11 06:22:23;;;;;;;;;55.00;41.60;;;;;27.45;62.81;100527.34;4935451;29;9014;-74
2021/08/11 06:24:51;;;;;;;;;47.80;40.60;;;;;27.28;62.83;100523.78;4935306;29;8857;-73
2021/08/11 06:27:19;;;;;;;;;44.60;37.60;;;;;27.42;63.38;100522.59;4934968;29;8852;-73
2021/08/11 06:30:15;;;;;;;;;46.80;38.60;;;;;27.52;63.23;100523.50;4934777;29;8860;-73
2021/08/11 06:33:10;;;;;;;;;33.00;30.40;;;;;27.43;61.03;100521.34;4934296;29;9621;-73
2021/08/11 06:36:06;;;;;;;;;52.20;42.40;;;;;27.63;63.13;100533.31;4931817;29;8857;-73
2021/08/11 06:39:02;;;;;;;;;50.20;40.00;;;;;27.79;62.50;100531.66;4936846;29;8849;-72
2021/08/11 06:41:58;;;;;;;;;51.40;40.00;;;;;27.75;60.16;100539.47;4937056;29;8987;-72
2021/08/11 06:44:53;;;;;;;;;48.20;38.40;;;;;27.49;58.86;100541.47;4937217;29;8883;-71
2021/08/11 06:47:49;;;;;;;;;41.20;36.00;;;;;27.70;60.80;100535.97;4937514;29;8879;-71
2021/08/11 06:50:16;;;;;;;;;53.60;43.60;;;;;27.89;61.39;100533.34;4938248;29;8865;-71
2021/08/11 06:53:12;;;;;;;;;53.20;43.40;;;;;27.80;59.28;100536.09;4937638;29;8893;-71
2021/08/11 06:55:42;;;;;;;;;50.80;43.00;;;;;27.66;56.76;100552.28;4925337;29;8976;-72
2021/08/11 06:58:37;;;;;;;;;45.60;39.00;;;;;27.63;58.33;100547.50;4935237;29;8852;-72
2021/08/11 07:01:33;;;;;;;;;41.20;35.00;;;;;27.65;58.16;100545.00;4946985;29;8848;-72
2021/08/11 07:04:29;;;;;;;;;41.20;35.00;;;;;27.94;57.99;100539.28;4944920;29;8914;-73
2021/08/11 07:07:25;;;;;;;;;28.60;28.60;;;;;27.88;56.14;100541.09;4946030;29;8864;-72
2021/08/11 07:09:57;;;;;;;;;35.00;30.20;;;;;28.24;57.85;100542.78;4928628;29;8868;-74
2021/08/11 07:12:25;;;;;;;;;43.60;36.00;;;;;28.39;57.79;100540.31;4922008;29;8860;-72
2021/08/11 07:15:21;;;;;;;;;30.40;29.40;;;;;28.44;54.85;100534.03;4937642;29;8923;-72
2021/08/11 07:17:53;;;;;;;;;25.40;25.40;;;;;28.31;54.47;100539.75;4937760;29;8852;-72
2021/08/11 07:20:49;;;;;;;;;29.40;28.40;;;;;28.19;56.60;100534.81;4938175;29;8849;-72
2021/08/11 07:23:45;;;;;;;;;36.20;32.60;;;;;28.38;56.30;100538.72;4937370;29;8841;-72
2021/08/11 07:26:12;;;;;;;;;48.40;41.40;;;;;28.52;55.02;100539.03;4938403;29;8853;-72
2021/08/11 07:29:08;;;;;;;;;51.00;41.00;;;;;28.71;55.18;100540.00;4936832;29;8868;-72
2021/08/11 07:32:04;;;;;;;;;54.60;43.80;;;;;28.88;55.32;100534.13;4936718;29;8939;-72
2021/08/11 07:34:59;;;;;;;;;56.60;45.60;;;;;29.21;55.50;100532.53;4936300;29;8867;-72
2021/08/11 07:37:29;;;;;;;;;48.00;40.00;;;;;29.31;55.50;100527.72;4936598;29;8849;-72
2021/08/11 07:40:12;;;;;;;;;51.80;41.40;;;;;29.40;56.40;100530.63;4916012;29;8833;-72
2021/08/11 07:43:10;;;;;;;;;48.80;39.40;;;;;29.23;55.23;100532.09;4929668;29;8853;-73
2021/08/11 07:45:59;;;;;;;;;37.00;33.80;;;;;29.04;54.70;100523.38;4930135;29;8872;-73
2021/08/11 07:48:55;;;;;;;;;31.80;30.20;;;;;29.21;55.25;100520.34;4936062;29;8943;-72
2021/08/11 07:51:51;;;;;;;;;29.40;29.00;;;;;28.74;54.34;100524.03;4935997;29;8853;-71
2021/08/11 07:54:46;;;;;;;;;28.60;28.60;;;;;28.68;54.99;100528.75;4936460;29;8927;-72
2021/08/11 07:57:14;;;;;;;;;36.60;31.60;;;;;29.08;56.91;100531.81;4942565;29;8887;-73
2021/08/11 08:00:11;;;;;;;;;21.80;21.60;;;;;29.25;54.57;100527.50;4942628;29;8869;-74
2021/08/11 08:03:07;;;;;;;;;26.40;26.40;;;;;29.42;54.41;100533.78;4942442;29;8853;-73
2021/08/11 08:06:04;;;;;;;;;27.20;27.20;;;;;29.29;54.39;100544.44;4937009;28;8859;-71
2021/08/11 08:09:00;;;;;;;;;26.00;24.40;;;;;29.46;54.67;100534.47;4935250;28;8831;-72
2021/08/11 08:11:29;;;;;;;;;23.20;21.00;;;;;29.53;53.91;100539.13;4947842;28;8860;-71
2021/08/11 08:14:25;;;;;;;;;32.00;30.80;;;;;29.70;54.30;100531.94;4952599;28;8883;-72
2021/08/11 08:17:20;;;;;;;;;30.40;29.00;;;;;29.76;54.49;100534.97;4952592;28;8844;-72
2021/08/11 08:20:18;;;;;;;;;30.40;28.60;;;;;29.63;54.16;100533.00;4951183;28;8848;-72
2021/08/11 08:23:15;;;;;;;;;40.80;33.40;;;;;29.88;53.82;100523.47;4935614;28;8936;-73
2021/08/11 08:26:10;;;;;;;;;29.20;28.60;;;;;29.99;53.65;100517.34;4922693;28;8846;-73
2021/08/11 08:29:00;;;;;;;;;39.40;34.00;;;;;29.84;52.26;100522.03;4938966;28;8863;-73
2021/08/11 08:31:28;;;;;;;;;37.00;33.60;;;;;29.88;53.76;100525.50;4921046;28;8853;-72
2021/08/11 08:34:25;;;;;;;;;36.40;32.20;;;;;29.85;54.19;100523.63;4952743;28;8856;-71
2021/08/11 08:37:36;;;;;;;;;31.80;30.00;;;;;29.84;53.79;100510.63;4954778;28;8859;-71
2021/08/11 08:40:36;;;;;;;;;25.00;24.40;;;;;30.06;53.39;100524.78;4938002;29;8932;-72
2021/08/11 08:43:32;;;;;;;;;35.60;32.00;;;;;30.08;52.79;100523.09;4928131;29;9558;-72
2021/08/11 08:46:01;;;;;;;;;26.40;25.40;;;;;29.92;53.78;100514.78;4933369;28;8892;-72
2021/08/11 08:48:57;;;;;;;;;40.40;34.20;;;;;30.14;54.68;100518.38;4931996;28;8868;-71
2021/08/11 08:51:49;;;;;;;;;41.00;32.80;;;;;30.01;53.12;100522.56;4932498;28;8891;-72
2021/08/11 08:54:46;;;;;;;;;44.80;37.00;;;;;29.90;54.20;100511.56;4930709;28;8845;-73
2021/08/11 08:57:28;;;;;;;;;57.00;44.60;;;;;29.89;53.60;100510.78;4931926;28;8883;-71
2021/08/11 09:00:25;;;;;;;;;53.60;42.80;;;;;29.80;54.09;100507.91;4931509;28;8876;-72
2021/08/11 09:03:20;;;;;;;;;52.40;42.60;;;;;29.74;54.75;100506.13;4931577;28;8947;-73
2021/08/11 09:06:17;;;;;;;;;42.80;34.60;;;;;29.86;54.60;100514.59;4932759;28;8895;-72
2021/08/11 09:09:13;;;;;;;;;54.60;43.00;;;;;29.84;55.20;100500.03;4938933;28;8903;-73
2021/08/11 09:12:14;;;;;;;;;51.00;39.40;;;;;29.90;54.99;100498.16;4953828;28;8859;-73
2021/08/11 09:14:55;;;;;;;;;39.40;34.60;;;;;29.77;55.25;100493.81;4933475;29;8859;-72
2021/08/11 09:17:51;;;;;;;;;27.60;26.80;;;;;29.84;54.92;100497.16;4939944;28;8860;-71
2021/08/11 09:21:09;;;;;;;;;35.00;31.20;;;;;29.62;55.87;100500.06;4955600;28;8828;-72
2021/08/11 09:23:43;;;;;;;;;29.00;28.20;;;;;29.68;55.22;100500.25;4889245;29;8842;-72
2021/08/11 09:26:39;;;;;;;;;33.60;29.20;;;;;29.42;55.28;100502.44;4943893;29;8848;-73
2021/08/11 09:29:35;;;;;;;;;35.40;32.00;;;;;29.48;56.10;100500.59;4939158;29;8836;-72
2021/08/11 09:32:33;;;;;;;;;33.00;31.00;;;;;29.65;56.28;100511.78;4934224;29;8892;-73
2021/08/11 09:35:33;;;;;;;;;30.80;29.00;;;;;29.57;56.04;100506.38;4934288;29;8845;-72
2021/08/11 09:38:28;;;;;;;;;36.40;31.60;;;;;29.53;55.84;100511.44;4921603;29;8997;-70
2021/08/11 09:41:25;;;;;;;;;48.40;39.40;;;;;29.38;56.28;100507.50;4934432;29;8853;-72
2021/08/11 09:44:21;;;;;;;;;51.00;41.80;;;;;29.57;56.29;100503.53;4943009;29;9594;-72
2021/08/11 09:46:54;;;;;;;;;40.20;35.40;;;;;29.41;55.94;100511.47;4937613;29;8861;-73
2021/08/11 09:49:26;;;;;;;;;31.80;29.40;;;;;29.49;57.13;100510.72;4935817;29;8857;-72
2021/08/11 09:52:21;;;;;;;;;54.60;45.00;;;;;29.23;56.39;100512.16;4904184;29;8888;-72
2021/08/11 09:55:18;;;;;;;;;47.60;39.80;;;;;29.16;57.51;100512.41;4916797;29;8869;-72
2021/08/11 09:57:46;;;;;;;;;42.20;36.60;;;;;29.14;57.43;100514.91;4935264;29;8858;-72
2021/08/11 10:00:15;;;;;;;;;49.00;40.00;;;;;29.35;57.68;100514.13;4935203;29;8907;-73
2021/08/11 10:03:11;;;;;;;;;59.40;46.40;;;;;29.19;57.26;100515.13;4934700;29;8877;-73
2021/08/11 10:06:02;;;;;;;;;50.40;41.00;;;;;29.17;58.21;100516.84;4934833;29;9616;-72
2021/08/11 10:09:16;;;;;;;;;43.80;38.00;;;;;29.41;56.73;100520.00;4933673;29;8880;-71
2021/08/11 10:12:29;;;;;;;;;47.00;40.00;;;;;29.43;57.32;100514.63;4937840;29;8912;-71
2021/08/11 10:15:25;;;;;;;;;46.00;37.20;;;;;29.49;56.86;100512.78;4938219;29;8888;-72
2021/08/11 10:17:59;;;;;;;;;49.40;41.20;;;;;29.47;57.67;100516.09;4940167;29;8865;-72
2021/08/11 10:21:01;;;;;;;;;46.80;39.60;;;;;29.69;56.67;100512.47;4954363;29;9010;-72
2021/08/11 10:23:56;;;;;;;;;62.50;49.25;;;;;29.65;56.56;100503.25;4956621;29;9635;-74
2021/08/11 10:26:53;;;;;;;;;59.75;47.00;;;;;29.63;57.38;100503.72;4954827;29;8969;-71
2021/08/11 10:29:51;;;;;;;;;54.80;45.40;;;;;29.61;57.58;100507.03;4957202;29;8913;-69
2021/08/11 10:32:47;;;;;;;;;54.60;43.00;;;;;29.55;57.52;100502.41;4942125;29;8870;-72
2021/08/11 10:35:45;;;;;;;;;55.60;44.80;;;;;29.72;56.98;100502.97;4932590;29;8855;-72
2021/08/11 10:38:45;;;;;;;;;50.00;41.40;;;;;29.61;56.28;100492.00;4947899;28;8926;-71
2021/08/11 10:41:43;;;;;;;;;57.80;45.60;;;;;29.63;58.09;100498.81;4928717;29;8859;-72
2021/08/11 10:44:39;;;;;;;;;49.40;40.40;;;;;29.79;57.28;100502.69;4943487;29;8915;-72
2021/08/11 10:47:35;;;;;;;;;50.00;42.00;;;;;29.88;56.67;100497.00;4907027;29;9045;-72
2021/08/11 10:50:51;;;;;;;;;53.40;43.20;;;;;29.79;56.35;100496.97;4919547;29;9600;-72
2021/08/11 10:54:03;;;;;;;;;47.60;40.40;;;;;29.60;56.84;100494.06;4925535;28;8855;-74
2021/08/11 10:56:58;;;;;;;;;49.00;39.80;;;;;29.53;56.71;100493.53;4956258;28;8867;-71
2021/08/11 10:59:27;;;;;;;;;46.60;39.80;;;;;29.56;57.70;100501.94;4957432;28;8876;-71
2021/08/11 11:01:57;;;;;;;;;45.20;38.00;;;;;29.67;56.77;100498.66;4957255;28;8891;-73
2021/08/11 11:04:55;;;;;;;;;48.40;40.80;;;;;29.70;57.05;100496.94;4956390;28;8859;-71
2021/08/11 11:08:15;;;;;;;;;56.20;44.00;;;;;29.58;57.54;100496.56;4944004;28;8846;-72
2021/08/11 11:11:35;;;;;;;;;55.40;43.80;;;;;29.66;57.09;100499.13;4956770;28;8862;-72
2021/08/11 11:14:04;;;;;;;;;48.40;41.00;;;;;29.82;57.25;100501.72;4957766;28;9643;-72
2021/08/11 11:17:05;;;;;;;;;47.00;38.20;;;;;29.79;57.97;100506.31;4956772;28;8847;-72
2021/08/11 11:19:33;;;;;;;;;39.40;34.20;;;;;29.52;57.60;100506.16;4939852;28;8858;-73
2021/08/11 11:22:43;;;;;;;;;39.00;34.40;;;;;29.74;57.78;100501.22;4943726;28;8858;-72
2021/08/11 11:25:20;;;;;;;;;33.40;31.20;;;;;29.69;58.51;100501.06;4957965;28;8877;-72
2021/08/11 11:28:02;;;;;;;;;43.00;35.60;;;;;29.78;58.16;100503.94;4926508;29;8878;-72
2021/08/11 11:30:59;;;;;;;;;39.00;33.60;;;;;29.60;58.56;100499.75;4952180;28;8839;-73
2021/08/11 11:34:23;;;;;;;;;34.00;31.60;;;;;29.86;57.86;100493.84;4968305;28;8855;-72
2021/08/11 11:37:20;;;;;;;;;42.40;36.80;;;;;29.53;57.67;100497.19;4956594;28;9066;-73
2021/08/11 11:40:18;;;;;;;;;49.00;41.80;;;;;29.58;57.83;100502.25;4962639;28;8869;-71
2021/08/11 11:42:46;;;;;;;;;48.40;41.40;;;;;29.76;58.35;100497.94;4976031;28;8941;-71
2021/08/11 11:45:45;;;;;;;;;38.20;29.20;;;;;29.80;58.25;100498.56;4973158;28;8866;-73
2021/08/11 11:49:16;;;;;;;;;60.80;49.00;;;;;29.65;58.97;100494.69;4953283;28;8968;-73
2021/08/11 11:52:03;;;;;;;;;57.40;47.00;;;;;29.89;58.39;100487.19;4955920;28;8888;-73
2021/08/11 11:54:33;;;;;;;;;46.80;39.20;;;;;29.98;58.01;100492.94;4955948;28;9536;-71
2021/08/11 11:57:29;;;;;;;;;53.40;40.60;;;;;29.93;58.73;100489.91;4954311;28;8889;-71
2021/08/11 11:59:58;;;;;;;;;54.20;44.00;;;;;29.98;58.31;100492.94;4956000;28;8939;-72
2021/08/11 12:02:32;;;;;;;;;53.40;42.60;;;;;29.98;57.92;100481.56;4956157;28;8890;-73
2021/08/11 12:05:03;;;;;;;;;56.40;45.60;;;;;29.99;58.13;100483.13;4955772;28;8857;-74
2021/08/11 12:07:32;;;;;;;;;56.60;46.60;;;;;29.90;58.76;100472.50;4958230;28;8900;-73
2021/08/11 12:10:02;;;;;;;;;54.40;42.80;;;;;30.00;58.68;100467.59;4958693;28;8847;-73
2021/08/11 12:12:30;;;;;;;;;52.00;43.80;;;;;30.03;59.06;100466.66;4958918;28;8886;-73
2021/08/11 12:15:31;;;;;;;;;47.20;38.80;;;;;30.11;58.57;100458.63;4957275;28;8856;-72
2021/08/11 12:18:28;;;;;;;;;45.60;39.00;;;;;30.18;58.32;100455.47;4956965;28;8863;-72
2021/08/11 12:21:24;;;;;;;;;54.40;43.20;;;;;30.20;58.68;100452.16;4953304;28;8993;-71
2021/08/11 12:24:19;;;;;;;;;47.60;39.80;;;;;30.24;58.51;100456.44;4952946;28;8971;-72
2021/08/11 12:26:50;;;;;;;;;48.40;40.80;;;;;30.14;58.11;100454.84;4952909;28;8903;-72
2021/08/11 12:29:47;;;;;;;;;45.80;38.80;;;;;30.27;58.46;100452.63;4959288;28;8931;-73
2021/08/11 12:32:28;;;;;;;;;46.00;38.60;;;;;30.16;58.49;100447.41;4955164;28;8878;-75
2021/08/11 12:34:56;;;;;;;;;44.80;38.60;;;;;30.21;58.71;100448.81;4954399;28;8874;-72
2021/08/11 12:37:52;;;;;;;;;40.00;35.20;;;;;30.27;58.53;100451.84;4950662;28;8953;-73
2021/08/11 12:40:48;;;;;;;;;30.80;30.20;;;;;30.24;58.34;100435.69;4952432;28;8890;-71
2021/08/11 12:43:44;;;;;;;;;29.80;28.80;;;;;30.16;58.19;100443.75;4952394;28;9651;-71
2021/08/11 12:46:42;;;;;;;;;35.60;32.00;;;;;30.18;58.85;100441.22;4944540;28;8846;-73
2021/08/11 12:49:35;;;;;;;;;34.40;31.80;;;;;30.04;58.75;100442.56;4952812;28;8868;-71
2021/08/11 12:52:20;;;;;;;;;31.00;30.20;;;;;30.16;58.43;100441.69;4944713;28;8891;-73
2021/08/11 12:55:04;;;;;;;;;36.00;33.00;;;;;30.20;58.32;100432.97;4944196;28;9755;-70
2021/08/11 12:57:46;;;;;;;;;34.00;29.80;;;;;30.23;57.55;100434.09;4951347;28;8872;-71
2021/08/11 13:00:43;;;;;;;;;30.40;29.60;;;;;30.26;57.90;100433.94;4951099;28;8860;-71